Big Hole Natl Battlefield, Montana
Current Conditions -  °F | °C
As of 8:55 AM on Saturday 25 Oct 2014 (Local Time) from KSMN Reporting Station
Overcast Overcast  
Wind Chill: 34°   Ceiling: 1000
Heat Index: 39°   Visibility: 10mi
Dew Point: 37°   Wind: 8mph
Humidity: 93%   Direction: 210°SSW
Pressure: 30"   Gusts: NA
Location:  45.64°N, 113.65°W
Report Text: KSMN 251455Z AUTO 21007KT 10SM OVC010 04/03 A3000 RMK AO1 57007
Loading
Personal Weather Stations






























Interactive Weather Map New forecast layout! Learn more

10-Day Weather Forecast

Advertisements
Track Severe Weather on mobile